Terminal Aerodrome Forecast
Issued by NWS

Home | Current Version | Previous Version | Text Only | Print | Product List | Glossary On
Versions: 1 2 3 4 5 6 7 8 9 10 11 12 13 14 15
830
FTUS46 KSGX 051127
TAFONT
TAF
KONT 051127Z 0512/0618 VRB05KT P6SM SCT250
     FM061100 VRB04KT P6SM BKN010
     FM061700 VRB05KT P6SM SCT015=

USA.gov is the U.S. government's official web portal to all federal, state and local government web resources and services.